createdAt,value
2019-03-21T00:02:24.390Z,2.33
2019-03-21T00:04:57.765Z,2.24
2019-03-21T00:07:31.138Z,2.15
2019-03-21T00:10:22.757Z,2.05
2019-03-21T00:12:56.168Z,2.00
2019-03-21T00:15:32.696Z,1.98
2019-03-21T00:18:09.075Z,1.97
2019-03-21T00:20:42.567Z,1.96
2019-03-21T00:23:15.999Z,1.89
2019-03-21T00:25:49.400Z,1.89
2019-03-21T00:28:22.847Z,1.78
2019-03-21T00:30:56.230Z,1.79
2019-03-21T00:33:29.565Z,1.82
2019-03-21T00:36:02.930Z,1.75
2019-03-21T00:38:36.348Z,1.68
2019-03-21T00:41:09.771Z,1.60
2019-03-21T00:43:43.355Z,1.64
2019-03-21T00:46:16.734Z,1.61
2019-03-21T00:48:50.069Z,1.63
2019-03-21T00:51:23.573Z,1.54
2019-03-21T00:53:56.913Z,1.49
2019-03-21T00:56:30.284Z,1.44
2019-03-21T00:59:03.652Z,1.59
2019-03-21T01:01:37.174Z,1.69
2019-03-21T01:04:10.611Z,1.68
2019-03-21T01:06:44.061Z,1.74
2019-03-21T01:09:17.400Z,1.81
2019-03-21T01:11:50.817Z,1.67
2019-03-21T01:14:29.737Z,1.54
2019-03-21T01:16:59.334Z,1.44
2019-03-21T01:19:33.440Z,1.47
2019-03-21T01:22:06.989Z,1.49
2019-03-21T01:24:40.394Z,1.74
2019-03-21T01:27:13.807Z,1.79
2019-03-21T01:29:47.202Z,1.72
2019-03-21T01:32:20.588Z,1.57
2019-03-21T01:34:53.938Z,1.31
2019-03-21T01:37:27.287Z,1.21
2019-03-21T01:40:00.624Z,1.07
2019-03-21T01:42:34.045Z,1.07
2019-03-21T01:45:10.569Z,0.98
2019-03-21T01:47:43.946Z,0.95
2019-03-21T01:50:19.651Z,0.89
2019-03-21T01:52:53.064Z,0.81
2019-03-21T01:55:26.419Z,0.61
2019-03-21T01:57:59.887Z,0.74
2019-03-21T02:00:36.044Z,0.69
2019-03-21T02:03:09.484Z,0.76
2019-03-21T02:05:42.910Z,0.84
2019-03-21T02:08:16.351Z,0.86
2019-03-21T02:10:49.744Z,0.87
2019-03-21T02:13:23.089Z,0.94
2019-03-21T02:15:59.306Z,0.94
2019-03-21T02:18:31.701Z,0.85
2019-03-21T02:21:05.110Z,0.80
2019-03-21T02:23:38.547Z,0.69
2019-03-21T02:26:11.874Z,0.61
2019-03-21T02:28:45.291Z,0.53
2019-03-21T02:31:18.639Z,0.39
2019-03-21T02:33:52.008Z,0.30
2019-03-21T02:36:25.347Z,0.31
2019-03-21T02:38:58.789Z,0.59
2019-03-21T02:41:32.190Z,0.61
2019-03-21T02:44:05.691Z,0.84
2019-03-21T02:46:39.283Z,0.83
2019-03-21T02:49:12.679Z,0.77
2019-03-21T02:51:46.118Z,0.75
2019-03-21T02:54:19.481Z,0.70
2019-03-21T02:56:52.949Z,0.76
2019-03-21T02:59:26.310Z,0.86
2019-03-21T03:01:59.670Z,0.90
2019-03-21T03:04:33.083Z,0.82
2019-03-21T03:07:06.467Z,0.96
2019-03-21T03:09:39.885Z,1.05
2019-03-21T03:12:13.368Z,1.05
2019-03-21T03:14:46.784Z,0.91
2019-03-21T03:17:20.195Z,0.74
2019-03-21T03:19:53.574Z,0.58
2019-03-21T03:22:26.930Z,0.53
2019-03-21T03:25:00.322Z,0.50
2019-03-21T03:27:33.659Z,0.39
2019-03-21T03:30:15.821Z,0.30
2019-03-21T03:32:49.139Z,0.30
2019-03-21T03:35:22.650Z,0.25
2019-03-21T03:37:55.990Z,0.14
2019-03-21T03:40:32.875Z,0.08
2019-03-21T03:43:06.286Z,0.09
2019-03-21T03:45:43.657Z,0.08
2019-03-21T03:48:19.756Z,0.18
2019-03-21T03:50:52.985Z,0.21
2019-03-21T03:53:26.434Z,0.24
2019-03-21T03:56:00.688Z,0.10
2019-03-21T03:58:43.508Z,0.01
2019-03-21T04:01:18.886Z,-0.20
2019-03-21T04:03:52.351Z,-0.29
2019-03-21T04:06:25.775Z,-0.39
2019-03-21T04:08:59.212Z,-0.54
2019-03-21T04:11:32.648Z,-0.51
2019-03-21T04:14:06.103Z,-0.52
2019-03-21T04:16:39.472Z,-0.47
2019-03-21T04:19:12.935Z,-0.44
2019-03-21T04:21:46.312Z,-0.32
2019-03-21T04:24:19.674Z,-0.35
2019-03-21T04:26:53.091Z,-0.30
2019-03-21T04:29:26.442Z,-0.03
2019-03-21T04:31:59.928Z,0.06
2019-03-21T04:34:33.383Z,0.12
2019-03-21T04:37:06.743Z,0.11
2019-03-21T04:39:40.179Z,0.03
2019-03-21T04:42:13.595Z,-0.11
2019-03-21T04:44:46.955Z,-0.10
2019-03-21T04:47:20.310Z,-0.05
2019-03-21T04:49:53.766Z,-0.02
2019-03-21T04:52:27.243Z,0.07
2019-03-21T04:55:00.578Z,0.23
2019-03-21T04:57:33.952Z,0.43
2019-03-21T05:00:13.642Z,0.36
2019-03-21T05:02:47.030Z,0.27
2019-03-21T05:05:20.383Z,0.18
2019-03-21T05:07:53.848Z,0.00
2019-03-21T05:10:27.236Z,0.08
2019-03-21T05:13:00.686Z,-0.03
2019-03-21T05:15:48.035Z,-0.06
2019-03-21T05:18:24.712Z,-0.06
2019-03-21T05:20:59.208Z,0.14
2019-03-21T05:23:32.712Z,0.25
2019-03-21T05:26:07.752Z,0.27
2019-03-21T05:28:41.200Z,0.37
2019-03-21T05:31:32.531Z,0.36
2019-03-21T05:34:05.960Z,0.25
2019-03-21T05:36:39.322Z,0.36
2019-03-21T05:39:12.694Z,0.48
2019-03-21T05:41:46.051Z,0.45
2019-03-21T05:44:25.564Z,0.44
2019-03-21T05:46:58.990Z,0.39
2019-03-21T05:49:32.355Z,0.42
2019-03-21T05:52:06.345Z,0.48
2019-03-21T05:54:39.731Z,0.57
2019-03-21T05:57:13.066Z,0.60
2019-03-21T05:59:46.434Z,0.66
2019-03-21T06:02:19.792Z,0.74
2019-03-21T06:04:53.219Z,0.78
2019-03-21T06:07:29.575Z,0.78
2019-03-21T06:10:03.793Z,0.88
2019-03-21T06:12:42.489Z,1.03
2019-03-21T06:15:21.594Z,1.07
2019-03-21T06:18:07.299Z,1.12
2019-03-21T06:21:09.704Z,1.22
2019-03-21T06:23:58.293Z,1.37
2019-03-21T06:26:54.428Z,1.42
2019-03-21T06:29:27.847Z,1.59
2019-03-21T06:32:01.214Z,1.67
2019-03-21T06:34:34.732Z,1.88
2019-03-21T06:37:08.085Z,2.02
2019-03-21T06:39:41.451Z,1.85
2019-03-21T06:42:14.805Z,1.94
2019-03-21T06:44:48.231Z,2.07
2019-03-21T06:47:21.609Z,2.12
2019-03-21T06:49:55.017Z,2.31
2019-03-21T06:52:28.395Z,2.36
2019-03-21T06:55:01.806Z,2.57
2019-03-21T06:57:35.283Z,2.55
2019-03-21T07:00:10.580Z,2.77
2019-03-21T07:02:44.009Z,2.85
2019-03-21T07:05:17.411Z,3.05
2019-03-21T07:07:50.802Z,3.10
2019-03-21T07:10:24.221Z,3.26
2019-03-21T07:12:57.634Z,3.65
2019-03-21T07:15:31.038Z,4.49
2019-03-21T07:18:04.546Z,5.28
2019-03-21T07:20:37.876Z,5.45
2019-03-21T07:23:11.243Z,6.32
2019-03-21T07:25:44.566Z,5.90
2019-03-21T07:28:18.007Z,6.81
2019-03-21T07:30:51.350Z,6.79
2019-03-21T07:33:24.858Z,6.87
2019-03-21T07:35:58.186Z,6.74
2019-03-21T07:38:31.701Z,6.92
2019-03-21T07:41:05.195Z,7.27
2019-03-21T07:43:38.600Z,7.76
2019-03-21T07:46:11.918Z,7.51
2019-03-21T07:48:45.369Z,8.50
2019-03-21T07:51:18.848Z,8.77
2019-03-21T07:53:52.295Z,8.66
2019-03-21T07:56:25.631Z,8.34
2019-03-21T07:58:59.004Z,8.61
2019-03-21T08:01:32.344Z,7.78
2019-03-21T08:04:05.814Z,7.31
2019-03-21T08:06:39.231Z,6.40
2019-03-21T08:09:12.696Z,6.54
2019-03-21T08:11:46.053Z,6.88
2019-03-21T08:14:19.432Z,6.84
2019-03-21T08:16:52.797Z,6.71
2019-03-21T08:19:26.170Z,6.91
2019-03-21T08:21:59.608Z,7.33
2019-03-21T08:24:32.947Z,7.37
2019-03-21T08:27:06.349Z,7.55
2019-03-21T08:29:39.745Z,7.59
2019-03-21T08:32:13.298Z,7.89
2019-03-21T08:34:46.668Z,7.91
2019-03-21T08:37:20.078Z,7.94
2019-03-21T08:39:53.519Z,8.10
2019-03-21T08:42:26.947Z,8.22
2019-03-21T08:45:00.435Z,8.65
2019-03-21T08:47:33.798Z,8.67
2019-03-21T08:50:11.770Z,8.89
2019-03-21T08:52:45.188Z,8.75
2019-03-21T08:55:18.712Z,8.61
2019-03-21T08:57:52.108Z,9.02
2019-03-21T09:00:33.773Z,9.10
2019-03-21T09:03:00.537Z,8.94
2019-03-21T09:05:33.976Z,8.94
2019-03-21T09:08:07.339Z,9.24
2019-03-21T09:10:40.798Z,9.48
2019-03-21T09:13:14.164Z,9.71
2019-03-21T09:15:47.635Z,9.93
2019-03-21T09:18:20.966Z,10.03
2019-03-21T09:20:54.403Z,10.17
2019-03-21T09:23:29.502Z,10.10
2019-03-21T09:26:02.856Z,9.83
2019-03-21T09:28:36.189Z,10.08
2019-03-21T09:31:09.564Z,10.43
2019-03-21T09:33:43.010Z,10.50
2019-03-21T09:36:16.420Z,10.68
2019-03-21T09:38:49.855Z,10.81
2019-03-21T09:41:23.240Z,10.82
2019-03-21T09:43:56.637Z,11.08
2019-03-21T09:46:30.107Z,11.23
2019-03-21T09:49:03.533Z,11.14
2019-03-21T09:51:36.879Z,11.36
2019-03-21T09:54:10.370Z,11.52
2019-03-21T09:56:43.728Z,11.63
2019-03-21T09:59:17.083Z,11.58
2019-03-21T10:01:50.489Z,11.83
2019-03-21T10:04:23.838Z,11.91
2019-03-21T10:06:57.265Z,11.91
2019-03-21T10:09:30.720Z,11.77
2019-03-21T10:12:04.195Z,11.93
2019-03-21T10:14:37.580Z,11.92
2019-03-21T10:17:11.141Z,11.96
2019-03-21T10:19:44.581Z,12.30
2019-03-21T10:22:17.919Z,12.22
2019-03-21T10:24:51.312Z,12.46
2019-03-21T10:27:24.759Z,12.01
2019-03-21T10:29:58.186Z,12.21
2019-03-21T10:32:31.686Z,12.34
2019-03-21T10:35:06.222Z,12.47
2019-03-21T10:37:39.585Z,12.80
2019-03-21T10:40:13.124Z,12.69
2019-03-21T10:42:46.609Z,12.69
2019-03-21T10:45:20.145Z,12.73
2019-03-21T10:47:53.568Z,12.95
2019-03-21T10:50:34.669Z,13.27
2019-03-21T10:53:08.781Z,13.22
2019-03-21T10:55:42.286Z,13.11
2019-03-21T10:58:15.717Z,13.35
2019-03-21T11:00:49.264Z,13.47
2019-03-21T11:03:22.626Z,13.43
2019-03-21T11:05:55.969Z,13.53
2019-03-21T11:08:29.491Z,13.86
2019-03-21T11:11:02.914Z,13.93
2019-03-21T11:13:36.312Z,13.84
2019-03-21T11:16:09.758Z,13.79
2019-03-21T11:18:43.259Z,13.90
2019-03-21T11:21:16.699Z,13.86
2019-03-21T11:23:50.092Z,14.14
2019-03-21T11:26:23.598Z,14.13
2019-03-21T11:28:57.102Z,14.15
2019-03-21T11:31:30.452Z,14.36
2019-03-21T11:34:03.866Z,14.52
2019-03-21T11:36:38.590Z,14.20
2019-03-21T11:39:12.349Z,14.46
2019-03-21T11:41:45.805Z,14.67
2019-03-21T11:44:19.226Z,14.65
2019-03-21T11:46:52.591Z,14.64
2019-03-21T11:49:25.955Z,14.46
2019-03-21T11:51:59.312Z,14.63
2019-03-21T11:54:32.632Z,14.75
2019-03-21T11:57:06.135Z,15.30
2019-03-21T11:59:51.113Z,15.63
2019-03-21T12:02:26.291Z,15.66
2019-03-21T12:04:49.823Z,15.66
2019-03-21T12:07:23.221Z,15.51
2019-03-21T12:09:56.581Z,15.56
2019-03-21T12:12:30.054Z,15.25
2019-03-21T12:15:04.942Z,15.29
2019-03-21T12:17:38.387Z,15.49
2019-03-21T12:20:17.750Z,15.61
2019-03-21T12:22:51.115Z,15.33
2019-03-21T12:25:24.637Z,15.56
2019-03-21T12:27:58.120Z,15.46
2019-03-21T12:30:34.710Z,15.82
2019-03-21T12:33:08.137Z,15.76
2019-03-21T12:35:41.615Z,15.92
2019-03-21T12:38:15.050Z,15.88
2019-03-21T12:40:48.430Z,15.88
2019-03-21T12:43:21.797Z,16.07
2019-03-21T12:45:56.141Z,16.04
2019-03-21T12:48:29.470Z,15.85
2019-03-21T12:51:02.900Z,15.89
2019-03-21T12:53:36.335Z,16.06
2019-03-21T12:56:09.744Z,16.14
2019-03-21T12:58:43.125Z,16.10
2019-03-21T13:01:16.483Z,15.96
2019-03-21T13:03:49.901Z,16.07
2019-03-21T13:06:23.339Z,15.89
2019-03-21T13:08:56.698Z,16.09
2019-03-21T13:11:30.149Z,15.97
2019-03-21T13:14:04.905Z,16.30
2019-03-21T13:16:38.377Z,16.58
2019-03-21T13:19:11.989Z,16.58
2019-03-21T13:21:45.357Z,16.36
2019-03-21T13:24:19.661Z,16.45
2019-03-21T13:26:53.252Z,16.45
2019-03-21T13:29:26.677Z,16.50
2019-03-21T13:32:00.182Z,16.44
2019-03-21T13:34:33.720Z,15.96
2019-03-21T13:37:07.120Z,16.23
2019-03-21T13:39:40.557Z,16.36
2019-03-21T13:42:14.000Z,16.37
2019-03-21T13:44:47.339Z,16.82
2019-03-21T13:47:20.718Z,16.48
2019-03-21T13:49:54.081Z,16.55
2019-03-21T13:52:27.518Z,16.64
2019-03-21T13:55:00.947Z,16.65
2019-03-21T13:57:34.279Z,16.57
2019-03-21T14:00:10.939Z,16.52
2019-03-21T14:02:44.373Z,16.71
2019-03-21T14:05:17.784Z,16.84
2019-03-21T14:07:51.230Z,16.69
2019-03-21T14:10:24.665Z,16.78
2019-03-21T14:12:58.083Z,16.92
2019-03-21T14:15:31.539Z,16.68
2019-03-21T14:18:04.966Z,16.91
2019-03-21T14:20:38.407Z,16.90
2019-03-21T14:23:17.128Z,16.68
2019-03-21T14:25:46.822Z,16.82
2019-03-21T14:28:20.290Z,16.93
2019-03-21T14:30:53.716Z,16.44
2019-03-21T14:33:27.069Z,16.56
2019-03-21T14:36:00.490Z,16.90
2019-03-21T14:38:33.862Z,16.85
2019-03-21T14:41:07.273Z,16.77
2019-03-21T14:43:40.724Z,16.84
2019-03-21T14:46:14.065Z,16.75
2019-03-21T14:48:47.450Z,16.79
2019-03-21T14:51:20.806Z,16.71
2019-03-21T14:53:54.162Z,16.89
2019-03-21T14:56:27.555Z,16.79
2019-03-21T14:59:00.984Z,16.88
2019-03-21T15:01:34.439Z,16.88
2019-03-21T15:04:07.858Z,16.90
2019-03-21T15:06:41.199Z,17.00
2019-03-21T15:09:14.637Z,16.97
2019-03-21T15:11:48.099Z,16.87
2019-03-21T15:14:21.544Z,16.74
2019-03-21T15:16:54.990Z,16.71
2019-03-21T15:19:28.424Z,16.67
2019-03-21T15:22:01.850Z,16.74
2019-03-21T15:24:35.262Z,16.55
2019-03-21T15:27:08.656Z,16.60
2019-03-21T15:29:42.016Z,16.77
2019-03-21T15:32:15.509Z,16.73
2019-03-21T15:34:49.002Z,16.66
2019-03-21T15:37:22.402Z,16.81
2019-03-21T15:39:55.796Z,16.86
2019-03-21T15:42:29.226Z,16.73
2019-03-21T15:45:20.559Z,16.70
2019-03-21T15:47:38.043Z,16.66
2019-03-21T15:50:14.607Z,16.52
2019-03-21T15:52:48.011Z,16.65
2019-03-21T15:55:21.392Z,16.60
2019-03-21T15:57:54.814Z,16.59
2019-03-21T16:00:36.548Z,16.64
2019-03-21T16:03:13.650Z,16.55
2019-03-21T16:05:47.036Z,16.54
2019-03-21T16:08:20.420Z,16.57
2019-03-21T16:10:53.828Z,16.45
2019-03-21T16:13:27.166Z,16.62
2019-03-21T16:16:00.569Z,17.02
2019-03-21T16:18:34.064Z,17.02
2019-03-21T16:21:07.440Z,17.42
2019-03-21T16:23:40.788Z,17.42
2019-03-21T16:26:14.215Z,17.22
2019-03-21T16:29:02.487Z,17.43
2019-03-21T16:31:42.893Z,17.73
2019-03-21T16:34:16.317Z,17.58
2019-03-21T16:36:49.780Z,17.62
2019-03-21T16:39:23.148Z,17.67
2019-03-21T16:41:56.563Z,17.24
2019-03-21T16:44:29.974Z,17.12
2019-03-21T16:47:03.463Z,17.00
2019-03-21T16:49:36.802Z,17.03
2019-03-21T16:52:10.168Z,16.99
2019-03-21T16:54:43.529Z,16.61
2019-03-21T16:57:16.895Z,16.43
2019-03-21T16:59:50.260Z,16.03
2019-03-21T17:02:23.698Z,15.67
2019-03-21T17:04:57.113Z,15.47
2019-03-21T17:07:31.597Z,15.32
2019-03-21T17:10:07.575Z,15.23
2019-03-21T17:12:41.057Z,15.23
2019-03-21T17:15:14.632Z,15.15
2019-03-21T17:17:48.002Z,15.07
2019-03-21T17:20:21.418Z,15.01
2019-03-21T17:22:54.871Z,14.88
2019-03-21T17:25:31.109Z,14.71
2019-03-21T17:28:03.458Z,14.57
2019-03-21T17:30:36.791Z,14.58
2019-03-21T17:33:10.242Z,14.47
2019-03-21T17:35:43.570Z,14.30
2019-03-21T17:38:17.070Z,14.14
2019-03-21T17:40:50.422Z,13.89
2019-03-21T17:43:23.867Z,13.87
2019-03-21T17:45:57.375Z,13.80
2019-03-21T17:48:30.696Z,13.75
2019-03-21T17:51:04.180Z,13.50
2019-03-21T17:53:37.690Z,13.23
2019-03-21T17:56:11.112Z,13.07
2019-03-21T17:58:44.467Z,13.00
2019-03-21T18:01:18.245Z,12.88
2019-03-21T18:03:51.697Z,12.51
2019-03-21T18:06:25.211Z,12.20
2019-03-21T18:08:58.601Z,11.91
2019-03-21T18:11:31.935Z,11.70
2019-03-21T18:14:05.392Z,11.52
2019-03-21T18:16:38.884Z,11.27
2019-03-21T18:19:12.340Z,11.14
2019-03-21T18:21:45.777Z,11.05
2019-03-21T18:24:19.231Z,10.97
2019-03-21T18:26:52.652Z,11.09
2019-03-21T18:29:26.166Z,11.33
2019-03-21T18:31:59.744Z,11.22
2019-03-21T18:34:33.183Z,11.15
2019-03-21T18:37:06.614Z,11.11
2019-03-21T18:39:40.058Z,11.36
2019-03-21T18:42:13.582Z,11.60
2019-03-21T18:44:47.108Z,11.51
2019-03-21T18:47:20.613Z,11.22
2019-03-21T18:49:54.041Z,11.05
2019-03-21T18:52:27.476Z,10.76
2019-03-21T18:55:06.195Z,10.86
2019-03-21T18:57:36.075Z,10.76
2019-03-21T19:00:15.928Z,10.55
2019-03-21T19:02:49.407Z,10.28
2019-03-21T19:05:22.872Z,10.19
2019-03-21T19:07:56.215Z,10.12
2019-03-21T19:10:29.698Z,10.11
2019-03-21T19:13:03.207Z,10.14
2019-03-21T19:15:36.690Z,10.01
2019-03-21T19:18:10.147Z,9.96
2019-03-21T19:20:43.559Z,9.81
2019-03-21T19:23:16.946Z,9.46
2019-03-21T19:25:50.410Z,9.25
2019-03-21T19:28:23.745Z,9.05
2019-03-21T19:30:57.192Z,8.84
2019-03-21T19:33:31.891Z,8.67
2019-03-21T19:36:05.480Z,8.64
2019-03-21T19:38:38.969Z,8.74
2019-03-21T19:41:12.401Z,8.62
2019-03-21T19:43:45.932Z,8.62
2019-03-21T19:46:19.385Z,8.40
2019-03-21T19:48:52.959Z,8.27
2019-03-21T19:51:26.342Z,8.47
2019-03-21T19:53:59.778Z,8.30
2019-03-21T19:56:33.209Z,8.45
2019-03-21T19:59:06.671Z,8.37
2019-03-21T20:01:40.183Z,8.26
2019-03-21T20:04:13.608Z,8.23
2019-03-21T20:06:47.030Z,8.18
2019-03-21T20:09:20.648Z,8.22
2019-03-21T20:11:54.092Z,8.00
2019-03-21T20:14:27.533Z,8.15
2019-03-21T20:17:00.967Z,7.75
2019-03-21T20:19:34.512Z,7.70
2019-03-21T20:22:07.928Z,7.75
2019-03-21T20:24:41.378Z,7.70
2019-03-21T20:27:14.801Z,7.74
2019-03-21T20:29:48.192Z,7.67
2019-03-21T20:32:21.563Z,7.63
2019-03-21T20:34:56.066Z,7.43
2019-03-21T20:37:29.567Z,7.45
2019-03-21T20:40:03.841Z,7.59
2019-03-21T20:42:37.343Z,7.75
2019-03-21T20:45:13.342Z,7.96
2019-03-21T20:47:46.830Z,7.95
2019-03-21T20:50:20.342Z,7.71
2019-03-21T20:52:53.850Z,7.49
2019-03-21T20:55:27.386Z,7.42
2019-03-21T20:58:00.824Z,7.49
2019-03-21T21:00:34.370Z,7.50
2019-03-21T21:03:07.850Z,7.51
2019-03-21T21:05:41.242Z,7.51
2019-03-21T21:08:14.734Z,7.69
2019-03-21T21:10:48.158Z,7.78
2019-03-21T21:13:21.565Z,7.73
2019-03-21T21:15:54.899Z,7.56
2019-03-21T21:18:28.394Z,7.29
2019-03-21T21:21:01.870Z,7.04
2019-03-21T21:23:35.360Z,6.98
2019-03-21T21:26:08.803Z,6.91
2019-03-21T21:28:42.203Z,6.97
2019-03-21T21:31:15.704Z,7.02
2019-03-21T21:33:49.128Z,7.03
2019-03-21T21:36:22.515Z,6.96
2019-03-21T21:38:55.873Z,6.87
2019-03-21T21:41:29.325Z,6.70
2019-03-21T21:44:02.756Z,6.63
2019-03-21T21:46:36.208Z,6.55
2019-03-21T21:49:09.687Z,6.42
2019-03-21T21:51:43.121Z,6.34
2019-03-21T21:54:16.465Z,6.33
2019-03-21T21:56:49.910Z,6.34
2019-03-21T21:59:23.438Z,6.18
2019-03-21T22:01:56.772Z,6.14
2019-03-21T22:04:30.218Z,6.16
2019-03-21T22:07:03.645Z,6.14
2019-03-21T22:09:37.087Z,6.13
2019-03-21T22:12:10.520Z,6.14
2019-03-21T22:14:44.020Z,6.22
2019-03-21T22:17:17.499Z,6.09
2019-03-21T22:19:50.850Z,6.19
2019-03-21T22:22:24.249Z,6.04
2019-03-21T22:24:57.726Z,6.01
2019-03-21T22:27:31.083Z,5.86
2019-03-21T22:30:09.904Z,5.82
2019-03-21T22:32:43.474Z,5.79
2019-03-21T22:35:16.835Z,5.83
2019-03-21T22:37:50.274Z,5.77
2019-03-21T22:40:23.634Z,5.74
2019-03-21T22:42:57.075Z,5.76
2019-03-21T22:45:30.490Z,5.76
2019-03-21T22:48:03.974Z,5.69
2019-03-21T22:50:37.358Z,5.61
2019-03-21T22:53:10.776Z,5.50
2019-03-21T22:55:44.271Z,5.63
2019-03-21T22:58:17.701Z,5.65
2019-03-21T23:00:51.965Z,5.65
2019-03-21T23:03:25.312Z,5.62
2019-03-21T23:05:58.808Z,5.56
2019-03-21T23:08:32.141Z,5.61
2019-03-21T23:11:05.580Z,5.71
2019-03-21T23:13:38.931Z,5.51
2019-03-21T23:16:12.316Z,5.34
2019-03-21T23:18:45.669Z,5.15
2019-03-21T23:21:19.035Z,5.14
2019-03-21T23:23:52.411Z,5.05
2019-03-21T23:26:25.836Z,4.93
2019-03-21T23:28:59.200Z,4.88
2019-03-21T23:31:32.644Z,4.92
2019-03-21T23:34:06.081Z,4.82
2019-03-21T23:36:39.512Z,4.82
2019-03-21T23:39:12.865Z,4.71
2019-03-21T23:41:46.368Z,4.75
2019-03-21T23:44:19.729Z,4.80
2019-03-21T23:46:53.082Z,4.69
2019-03-21T23:49:26.497Z,4.64
2019-03-21T23:51:59.938Z,4.59
2019-03-21T23:54:33.360Z,4.51
2019-03-21T23:57:06.868Z,4.36
2019-03-21T23:59:40.221Z,4.40
